Terminal Aerodrome Forecast
Issued by NWS North Platte, NE

Home | Current Version | Previous Version | Text Only | Print | Product List | Glossary On
Versions: 1 2 3 4 5 6 7 8 9 10 11 12 13
000
FTUS43 KLBF 211435 AAA
TAFLBF
TAF AMD
KLBF 211435Z 2115/2212 03015G24KT P6SM BKN015 BKN025
     FM211700 03016G28KT P6SM VCSH OVC015
     FM211900 03018G29KT 6SM -SN OVC015
     FM212100 02024G31KT 1 1/2SM -SN OVC008
     FM220000 01020G30KT 1/4SM +SN BLSN VV003
     FM220400 34025G35KT 1/2SM SN BLSN OVC015=

USA.gov is the U.S. government's official web portal to all federal, state and local government web resources and services.